sensor_id;sensor_type;location;lat;lon;timestamp;P1;durP1;ratioP1;P2;durP2;ratioP2
77055;SDS011;67471;44.918;8.614;2023-05-16T00:03:01;6.50;;;4.93;;
77055;SDS011;67471;44.918;8.614;2023-05-16T00:06:08;8.02;;;5.03;;
77055;SDS011;67471;44.918;8.614;2023-05-16T00:09:12;9.02;;;5.68;;
77055;SDS011;67471;44.918;8.614;2023-05-16T00:12:15;8.38;;;5.25;;
77055;SDS011;67471;44.918;8.614;2023-05-16T00:15:20;7.38;;;5.30;;
77055;SDS011;67471;44.918;8.614;2023-05-16T00:18:25;10.00;;;5.15;;
77055;SDS011;67471;44.918;8.614;2023-05-16T00:21:29;8.43;;;5.88;;
77055;SDS011;67471;44.918;8.614;2023-05-16T00:24:33;7.53;;;5.20;;
77055;SDS011;67471;44.918;8.614;2023-05-16T00:27:37;9.27;;;5.80;;
77055;SDS011;67471;44.918;8.614;2023-05-16T00:30:41;6.32;;;5.53;;
77055;SDS011;67471;44.918;8.614;2023-05-16T00:33:44;8.02;;;5.07;;
77055;SDS011;67471;44.918;8.614;2023-05-16T00:36:48;6.45;;;4.82;;
77055;SDS011;67471;44.918;8.614;2023-05-16T00:39:52;6.90;;;5.05;;
77055;SDS011;67471;44.918;8.614;2023-05-16T00:42:56;6.20;;;5.53;;
77055;SDS011;67471;44.918;8.614;2023-05-16T00:46:00;7.30;;;5.25;;
77055;SDS011;67471;44.918;8.614;2023-05-16T00:49:03;11.65;;;7.30;;
77055;SDS011;67471;44.918;8.614;2023-05-16T00:52:07;7.45;;;5.50;;
77055;SDS011;67471;44.918;8.614;2023-05-16T00:55:11;6.90;;;5.10;;
77055;SDS011;67471;44.918;8.614;2023-05-16T00:58:17;6.82;;;5.45;;
77055;SDS011;67471;44.918;8.614;2023-05-16T01:01:22;8.80;;;5.40;;
77055;SDS011;67471;44.918;8.614;2023-05-16T01:04:29;6.53;;;5.30;;
77055;SDS011;67471;44.918;8.614;2023-05-16T01:07:34;6.68;;;4.88;;
77055;SDS011;67471;44.918;8.614;2023-05-16T01:10:38;6.43;;;4.80;;
77055;SDS011;67471;44.918;8.614;2023-05-16T01:14:25;7.18;;;4.88;;
77055;SDS011;67471;44.918;8.614;2023-05-16T01:21:11;6.60;;;5.35;;
77055;SDS011;67471;44.918;8.614;2023-05-16T01:24:26;5.70;;;4.57;;
77055;SDS011;67471;44.918;8.614;2023-05-16T01:27:37;5.93;;;4.75;;
77055;SDS011;67471;44.918;8.614;2023-05-16T01:30:42;6.72;;;4.65;;
77055;SDS011;67471;44.918;8.614;2023-05-16T01:33:47;6.05;;;4.90;;
77055;SDS011;67471;44.918;8.614;2023-05-16T01:40:29;6.70;;;4.15;;
77055;SDS011;67471;44.918;8.614;2023-05-16T01:43:43;6.95;;;5.20;;
77055;SDS011;67471;44.918;8.614;2023-05-16T01:46:51;6.47;;;5.45;;
77055;SDS011;67471;44.918;8.614;2023-05-16T01:50:02;8.27;;;4.60;;
77055;SDS011;67471;44.918;8.614;2023-05-16T01:53:13;5.22;;;4.30;;
77055;SDS011;67471;44.918;8.614;2023-05-16T01:56:21;5.82;;;4.97;;
77055;SDS011;67471;44.918;8.614;2023-05-16T01:59:25;7.03;;;4.47;;
77055;SDS011;67471;44.918;8.614;2023-05-16T02:02:31;5.28;;;3.72;;
77055;SDS011;67471;44.918;8.614;2023-05-16T02:05:35;6.60;;;4.32;;
77055;SDS011;67471;44.918;8.614;2023-05-16T02:08:39;5.65;;;4.70;;
77055;SDS011;67471;44.918;8.614;2023-05-16T02:11:42;5.80;;;4.15;;
77055;SDS011;67471;44.918;8.614;2023-05-16T02:14:46;7.05;;;4.22;;
77055;SDS011;67471;44.918;8.614;2023-05-16T02:17:50;7.47;;;4.57;;
77055;SDS011;67471;44.918;8.614;2023-05-16T02:20:54;6.50;;;4.68;;
77055;SDS011;67471;44.918;8.614;2023-05-16T02:23:57;5.38;;;4.15;;
77055;SDS011;67471;44.918;8.614;2023-05-16T02:27:03;7.03;;;4.22;;
77055;SDS011;67471;44.918;8.614;2023-05-16T02:30:08;7.35;;;4.25;;
77055;SDS011;67471;44.918;8.614;2023-05-16T02:33:14;7.53;;;4.75;;
77055;SDS011;67471;44.918;8.614;2023-05-16T02:36:17;7.88;;;4.32;;
77055;SDS011;67471;44.918;8.614;2023-05-16T02:39:21;6.13;;;4.55;;
77055;SDS011;67471;44.918;8.614;2023-05-16T02:42:27;7.10;;;4.53;;
77055;SDS011;67471;44.918;8.614;2023-05-16T02:45:31;7.05;;;4.53;;
77055;SDS011;67471;44.918;8.614;2023-05-16T02:48:35;9.50;;;5.22;;
77055;SDS011;67471;44.918;8.614;2023-05-16T02:51:39;6.70;;;5.03;;
77055;SDS011;67471;44.918;8.614;2023-05-16T02:54:43;8.82;;;5.05;;
77055;SDS011;67471;44.918;8.614;2023-05-16T02:57:46;7.28;;;4.78;;
77055;SDS011;67471;44.918;8.614;2023-05-16T03:00:50;8.45;;;5.05;;
77055;SDS011;67471;44.918;8.614;2023-05-16T03:03:55;6.50;;;4.28;;
77055;SDS011;67471;44.918;8.614;2023-05-16T03:06:59;5.38;;;4.10;;
77055;SDS011;67471;44.918;8.614;2023-05-16T03:10:04;6.47;;;4.18;;
77055;SDS011;67471;44.918;8.614;2023-05-16T03:13:08;6.47;;;4.35;;
77055;SDS011;67471;44.918;8.614;2023-05-16T03:16:12;6.32;;;4.38;;
77055;SDS011;67471;44.918;8.614;2023-05-16T03:19:15;7.13;;;4.55;;
77055;SDS011;67471;44.918;8.614;2023-05-16T03:22:19;6.63;;;4.57;;
77055;SDS011;67471;44.918;8.614;2023-05-16T03:25:23;9.43;;;4.97;;
77055;SDS011;67471;44.918;8.614;2023-05-16T03:28:27;7.75;;;4.38;;
77055;SDS011;67471;44.918;8.614;2023-05-16T03:31:31;7.38;;;4.70;;
77055;SDS011;67471;44.918;8.614;2023-05-16T03:34:35;5.90;;;4.20;;
77055;SDS011;67471;44.918;8.614;2023-05-16T03:37:39;6.03;;;4.13;;
77055;SDS011;67471;44.918;8.614;2023-05-16T03:40:43;9.07;;;4.65;;
77055;SDS011;67471;44.918;8.614;2023-05-16T03:43:47;8.18;;;4.57;;
77055;SDS011;67471;44.918;8.614;2023-05-16T03:46:51;6.18;;;4.20;;
77055;SDS011;67471;44.918;8.614;2023-05-16T03:49:56;7.82;;;4.05;;
77055;SDS011;67471;44.918;8.614;2023-05-16T03:53:00;7.15;;;4.43;;
77055;SDS011;67471;44.918;8.614;2023-05-16T03:56:04;6.35;;;4.68;;
77055;SDS011;67471;44.918;8.614;2023-05-16T03:59:08;8.95;;;4.68;;
77055;SDS011;67471;44.918;8.614;2023-05-16T04:02:11;9.50;;;4.93;;
77055;SDS011;67471;44.918;8.614;2023-05-16T04:05:15;6.65;;;4.63;;
77055;SDS011;67471;44.918;8.614;2023-05-16T04:08:19;7.60;;;4.70;;
77055;SDS011;67471;44.918;8.614;2023-05-16T04:11:23;6.60;;;4.68;;
77055;SDS011;67471;44.918;8.614;2023-05-16T04:14:27;6.38;;;4.60;;
77055;SDS011;67471;44.918;8.614;2023-05-16T04:17:31;6.63;;;4.28;;
77055;SDS011;67471;44.918;8.614;2023-05-16T04:20:35;9.98;;;4.88;;
77055;SDS011;67471;44.918;8.614;2023-05-16T04:23:42;7.25;;;4.40;;
77055;SDS011;67471;44.918;8.614;2023-05-16T04:26:46;8.40;;;6.00;;
77055;SDS011;67471;44.918;8.614;2023-05-16T04:29:49;10.20;;;7.38;;
77055;SDS011;67471;44.918;8.614;2023-05-16T04:32:54;9.70;;;5.10;;
77055;SDS011;67471;44.918;8.614;2023-05-16T04:35:59;6.78;;;5.55;;
77055;SDS011;67471;44.918;8.614;2023-05-16T04:39:03;11.20;;;5.82;;
77055;SDS011;67471;44.918;8.614;2023-05-16T04:42:07;7.03;;;4.70;;
77055;SDS011;67471;44.918;8.614;2023-05-16T04:45:11;8.98;;;5.93;;
77055;SDS011;67471;44.918;8.614;2023-05-16T04:48:17;12.70;;;5.95;;
77055;SDS011;67471;44.918;8.614;2023-05-16T04:51:20;8.27;;;5.15;;
77055;SDS011;67471;44.918;8.614;2023-05-16T04:54:24;10.13;;;6.03;;
77055;SDS011;67471;44.918;8.614;2023-05-16T04:57:28;7.68;;;5.22;;
77055;SDS011;67471;44.918;8.614;2023-05-16T05:00:32;9.75;;;5.88;;
77055;SDS011;67471;44.918;8.614;2023-05-16T05:03:36;8.60;;;4.97;;
77055;SDS011;67471;44.918;8.614;2023-05-16T05:06:40;12.27;;;5.40;;
77055;SDS011;67471;44.918;8.614;2023-05-16T05:09:44;8.35;;;5.78;;
77055;SDS011;67471;44.918;8.614;2023-05-16T05:12:48;8.25;;;4.78;;
77055;SDS011;67471;44.918;8.614;2023-05-16T05:15:53;8.63;;;5.40;;
77055;SDS011;67471;44.918;8.614;2023-05-16T05:18:57;9.55;;;5.43;;
77055;SDS011;67471;44.918;8.614;2023-05-16T05:22:00;8.50;;;5.05;;
77055;SDS011;67471;44.918;8.614;2023-05-16T05:25:05;7.35;;;4.80;;
77055;SDS011;67471;44.918;8.614;2023-05-16T05:28:08;7.55;;;4.63;;
77055;SDS011;67471;44.918;8.614;2023-05-16T05:31:12;7.15;;;4.57;;
77055;SDS011;67471;44.918;8.614;2023-05-16T05:34:15;9.00;;;5.25;;
77055;SDS011;67471;44.918;8.614;2023-05-16T05:37:19;8.75;;;4.90;;
77055;SDS011;67471;44.918;8.614;2023-05-16T05:40:23;6.97;;;5.43;;
77055;SDS011;67471;44.918;8.614;2023-05-16T05:43:27;7.88;;;5.07;;
77055;SDS011;67471;44.918;8.614;2023-05-16T05:46:30;8.15;;;4.85;;
77055;SDS011;67471;44.918;8.614;2023-05-16T05:49:35;8.45;;;5.13;;
77055;SDS011;67471;44.918;8.614;2023-05-16T05:52:39;7.65;;;4.80;;
77055;SDS011;67471;44.918;8.614;2023-05-16T05:55:43;7.00;;;4.65;;
77055;SDS011;67471;44.918;8.614;2023-05-16T05:58:47;6.45;;;4.30;;
77055;SDS011;67471;44.918;8.614;2023-05-16T06:01:51;5.72;;;4.22;;
77055;SDS011;67471;44.918;8.614;2023-05-16T06:04:54;6.28;;;4.25;;
77055;SDS011;67471;44.918;8.614;2023-05-16T06:07:58;7.15;;;4.47;;
77055;SDS011;67471;44.918;8.614;2023-05-16T06:11:02;9.40;;;4.72;;
77055;SDS011;67471;44.918;8.614;2023-05-16T06:14:05;7.05;;;4.05;;
77055;SDS011;67471;44.918;8.614;2023-05-16T06:17:09;5.97;;;4.35;;
77055;SDS011;67471;44.918;8.614;2023-05-16T06:20:13;6.68;;;4.57;;
77055;SDS011;67471;44.918;8.614;2023-05-16T06:23:17;6.43;;;4.63;;
77055;SDS011;67471;44.918;8.614;2023-05-16T06:26:22;7.22;;;4.60;;
77055;SDS011;67471;44.918;8.614;2023-05-16T06:29:26;6.63;;;4.65;;
77055;SDS011;67471;44.918;8.614;2023-05-16T06:32:30;5.55;;;4.07;;
77055;SDS011;67471;44.918;8.614;2023-05-16T06:35:34;6.13;;;4.35;;
77055;SDS011;67471;44.918;8.614;2023-05-16T06:38:38;6.88;;;4.13;;
77055;SDS011;67471;44.918;8.614;2023-05-16T06:41:42;7.32;;;4.65;;
77055;SDS011;67471;44.918;8.614;2023-05-16T06:44:51;7.55;;;4.57;;
77055;SDS011;67471;44.918;8.614;2023-05-16T06:47:55;10.55;;;5.85;;
77055;SDS011;67471;44.918;8.614;2023-05-16T06:50:59;7.22;;;4.90;;
77055;SDS011;67471;44.918;8.614;2023-05-16T06:54:03;8.25;;;4.50;;
77055;SDS011;67471;44.918;8.614;2023-05-16T06:57:07;6.32;;;4.47;;
77055;SDS011;67471;44.918;8.614;2023-05-16T07:00:11;9.20;;;4.88;;
77055;SDS011;67471;44.918;8.614;2023-05-16T07:03:15;6.80;;;4.13;;
77055;SDS011;67471;44.918;8.614;2023-05-16T07:06:19;5.68;;;4.28;;
77055;SDS011;67471;44.918;8.614;2023-05-16T07:09:23;8.38;;;4.72;;
77055;SDS011;67471;44.918;8.614;2023-05-16T07:12:27;6.72;;;4.93;;
77055;SDS011;67471;44.918;8.614;2023-05-16T07:15:31;7.30;;;4.65;;
77055;SDS011;67471;44.918;8.614;2023-05-16T07:18:35;10.70;;;6.22;;
77055;SDS011;67471;44.918;8.614;2023-05-16T07:21:38;12.18;;;5.05;;
77055;SDS011;67471;44.918;8.614;2023-05-16T07:24:42;6.65;;;4.85;;
77055;SDS011;67471;44.918;8.614;2023-05-16T07:27:46;6.93;;;4.03;;
77055;SDS011;67471;44.918;8.614;2023-05-16T07:30:49;9.55;;;5.13;;
77055;SDS011;67471;44.918;8.614;2023-05-16T07:33:53;6.78;;;4.93;;
77055;SDS011;67471;44.918;8.614;2023-05-16T07:36:57;10.00;;;4.55;;
77055;SDS011;67471;44.918;8.614;2023-05-16T07:40:01;9.73;;;4.57;;
77055;SDS011;67471;44.918;8.614;2023-05-16T07:43:06;9.57;;;5.03;;
77055;SDS011;67471;44.918;8.614;2023-05-16T07:46:10;9.93;;;5.00;;
77055;SDS011;67471;44.918;8.614;2023-05-16T07:49:13;6.80;;;4.90;;
77055;SDS011;67471;44.918;8.614;2023-05-16T07:52:17;5.28;;;4.25;;
77055;SDS011;67471;44.918;8.614;2023-05-16T07:55:21;6.78;;;4.68;;
77055;SDS011;67471;44.918;8.614;2023-05-16T07:58:25;12.60;;;5.00;;
77055;SDS011;67471;44.918;8.614;2023-05-16T08:01:29;10.43;;;4.70;;
77055;SDS011;67471;44.918;8.614;2023-05-16T08:04:33;10.50;;;5.47;;
77055;SDS011;67471;44.918;8.614;2023-05-16T08:07:36;8.63;;;5.65;;
77055;SDS011;67471;44.918;8.614;2023-05-16T08:10:40;7.65;;;5.25;;
77055;SDS011;67471;44.918;8.614;2023-05-16T08:13:44;8.05;;;5.40;;
77055;SDS011;67471;44.918;8.614;2023-05-16T08:16:48;8.35;;;5.82;;
77055;SDS011;67471;44.918;8.614;2023-05-16T08:19:52;11.25;;;6.80;;
77055;SDS011;67471;44.918;8.614;2023-05-16T08:22:56;12.45;;;7.13;;
77055;SDS011;67471;44.918;8.614;2023-05-16T08:25:59;10.15;;;6.30;;
77055;SDS011;67471;44.918;8.614;2023-05-16T08:29:03;9.35;;;6.20;;
77055;SDS011;67471;44.918;8.614;2023-05-16T08:32:07;10.38;;;5.50;;
77055;SDS011;67471;44.918;8.614;2023-05-16T08:35:11;8.57;;;6.25;;
77055;SDS011;67471;44.918;8.614;2023-05-16T08:38:15;10.82;;;5.93;;
77055;SDS011;67471;44.918;8.614;2023-05-16T08:41:18;9.27;;;5.65;;
77055;SDS011;67471;44.918;8.614;2023-05-16T08:44:24;8.55;;;6.60;;
77055;SDS011;67471;44.918;8.614;2023-05-16T08:47:29;9.63;;;5.95;;
77055;SDS011;67471;44.918;8.614;2023-05-16T08:50:34;9.10;;;6.20;;
77055;SDS011;67471;44.918;8.614;2023-05-16T08:53:39;7.07;;;5.60;;
77055;SDS011;67471;44.918;8.614;2023-05-16T08:56:48;9.63;;;6.65;;
77055;SDS011;67471;44.918;8.614;2023-05-16T08:59:53;9.50;;;6.93;;
77055;SDS011;67471;44.918;8.614;2023-05-16T09:02:59;9.38;;;7.20;;
77055;SDS011;67471;44.918;8.614;2023-05-16T09:06:03;10.43;;;6.68;;
77055;SDS011;67471;44.918;8.614;2023-05-16T09:09:08;9.10;;;7.28;;
77055;SDS011;67471;44.918;8.614;2023-05-16T09:12:15;11.15;;;7.78;;
77055;SDS011;67471;44.918;8.614;2023-05-16T09:15:18;13.45;;;8.82;;
77055;SDS011;67471;44.918;8.614;2023-05-16T09:18:24;22.25;;;14.70;;
77055;SDS011;67471;44.918;8.614;2023-05-16T09:21:32;21.30;;;14.07;;
77055;SDS011;67471;44.918;8.614;2023-05-16T09:24:37;10.95;;;9.07;;
77055;SDS011;67471;44.918;8.614;2023-05-16T09:27:42;13.90;;;9.38;;
77055;SDS011;67471;44.918;8.614;2023-05-16T09:30:45;10.88;;;8.85;;
77055;SDS011;67471;44.918;8.614;2023-05-16T09:33:49;11.55;;;9.60;;
77055;SDS011;67471;44.918;8.614;2023-05-16T09:36:53;14.88;;;9.05;;
77055;SDS011;67471;44.918;8.614;2023-05-16T09:39:57;11.25;;;8.25;;
77055;SDS011;67471;44.918;8.614;2023-05-16T09:43:05;9.75;;;7.43;;
77055;SDS011;67471;44.918;8.614;2023-05-16T09:46:13;14.32;;;8.10;;
77055;SDS011;67471;44.918;8.614;2023-05-16T09:49:17;10.05;;;7.30;;
77055;SDS011;67471;44.918;8.614;2023-05-16T09:52:21;11.98;;;8.40;;
77055;SDS011;67471;44.918;8.614;2023-05-16T09:55:25;9.80;;;7.63;;
77055;SDS011;67471;44.918;8.614;2023-05-16T09:58:38;8.43;;;6.72;;
77055;SDS011;67471;44.918;8.614;2023-05-16T10:01:43;8.95;;;6.57;;
77055;SDS011;67471;44.918;8.614;2023-05-16T10:04:47;7.60;;;5.95;;
77055;SDS011;67471;44.918;8.614;2023-05-16T10:07:51;8.65;;;6.05;;
77055;SDS011;67471;44.918;8.614;2023-05-16T10:10:58;11.27;;;5.68;;
77055;SDS011;67471;44.918;8.614;2023-05-16T10:14:02;8.10;;;5.70;;
77055;SDS011;67471;44.918;8.614;2023-05-16T10:17:09;9.13;;;4.88;;
77055;SDS011;67471;44.918;8.614;2023-05-16T10:20:16;5.03;;;3.58;;
77055;SDS011;67471;44.918;8.614;2023-05-16T10:23:20;4.93;;;2.83;;
77055;SDS011;67471;44.918;8.614;2023-05-16T10:26:28;6.70;;;3.47;;
77055;SDS011;67471;44.918;8.614;2023-05-16T10:29:33;4.13;;;2.10;;
77055;SDS011;67471;44.918;8.614;2023-05-16T10:32:38;4.93;;;2.08;;
77055;SDS011;67471;44.918;8.614;2023-05-16T10:35:42;3.72;;;1.50;;
77055;SDS011;67471;44.918;8.614;2023-05-16T10:38:46;2.17;;;1.52;;
77055;SDS011;67471;44.918;8.614;2023-05-16T10:41:52;2.88;;;1.38;;
77055;SDS011;67471;44.918;8.614;2023-05-16T10:45:07;2.45;;;1.45;;
77055;SDS011;67471;44.918;8.614;2023-05-16T10:48:28;2.28;;;1.20;;
77055;SDS011;67471;44.918;8.614;2023-05-16T10:51:34;2.75;;;1.23;;
77055;SDS011;67471;44.918;8.614;2023-05-16T10:54:40;2.55;;;1.55;;
77055;SDS011;67471;44.918;8.614;2023-05-16T10:57:45;2.10;;;1.30;;
77055;SDS011;67471;44.918;8.614;2023-05-16T11:01:07;3.10;;;1.77;;
77055;SDS011;67471;44.918;8.614;2023-05-16T11:04:23;3.03;;;1.58;;
77055;SDS011;67471;44.918;8.614;2023-05-16T11:07:46;3.45;;;1.88;;
77055;SDS011;67471;44.918;8.614;2023-05-16T11:14:49;4.05;;;2.15;;
77055;SDS011;67471;44.918;8.614;2023-05-16T11:18:07;2.80;;;1.77;;
77055;SDS011;67471;44.918;8.614;2023-05-16T11:21:18;3.33;;;2.00;;
77055;SDS011;67471;44.918;8.614;2023-05-16T11:24:28;2.95;;;2.20;;
77055;SDS011;67471;44.918;8.614;2023-05-16T11:27:47;5.18;;;2.00;;
77055;SDS011;67471;44.918;8.614;2023-05-16T11:30:52;4.75;;;2.40;;
77055;SDS011;67471;44.918;8.614;2023-05-16T11:33:59;4.38;;;2.20;;
77055;SDS011;67471;44.918;8.614;2023-05-16T11:37:03;3.20;;;2.13;;
77055;SDS011;67471;44.918;8.614;2023-05-16T11:40:07;4.22;;;2.70;;
77055;SDS011;67471;44.918;8.614;2023-05-16T11:43:16;4.15;;;2.60;;
77055;SDS011;67471;44.918;8.614;2023-05-16T11:46:21;4.35;;;2.60;;
77055;SDS011;67471;44.918;8.614;2023-05-16T11:49:26;3.35;;;2.60;;
77055;SDS011;67471;44.918;8.614;2023-05-16T11:52:30;3.85;;;2.85;;
77055;SDS011;67471;44.918;8.614;2023-05-16T11:55:35;3.47;;;2.45;;
77055;SDS011;67471;44.918;8.614;2023-05-16T11:58:41;3.75;;;2.85;;
77055;SDS011;67471;44.918;8.614;2023-05-16T12:01:44;3.42;;;2.42;;
77055;SDS011;67471;44.918;8.614;2023-05-16T12:04:51;4.97;;;2.70;;
77055;SDS011;67471;44.918;8.614;2023-05-16T12:07:55;3.15;;;2.35;;
77055;SDS011;67471;44.918;8.614;2023-05-16T12:10:59;2.50;;;1.90;;
77055;SDS011;67471;44.918;8.614;2023-05-16T12:14:04;3.05;;;2.20;;
77055;SDS011;67471;44.918;8.614;2023-05-16T12:17:08;2.92;;;2.03;;
77055;SDS011;67471;44.918;8.614;2023-05-16T12:20:12;4.25;;;2.00;;
77055;SDS011;67471;44.918;8.614;2023-05-16T12:23:18;4.18;;;1.60;;
77055;SDS011;67471;44.918;8.614;2023-05-16T12:26:26;3.00;;;1.70;;
77055;SDS011;67471;44.918;8.614;2023-05-16T12:29:33;2.47;;;1.67;;
77055;SDS011;67471;44.918;8.614;2023-05-16T12:32:37;3.05;;;1.23;;
77055;SDS011;67471;44.918;8.614;2023-05-16T12:35:41;2.45;;;1.58;;
77055;SDS011;67471;44.918;8.614;2023-05-16T12:38:46;3.85;;;1.63;;
77055;SDS011;67471;44.918;8.614;2023-05-16T12:41:50;2.88;;;1.70;;
77055;SDS011;67471;44.918;8.614;2023-05-16T12:44:54;3.63;;;1.25;;
77055;SDS011;67471;44.918;8.614;2023-05-16T12:48:20;2.47;;;1.40;;
77055;SDS011;67471;44.918;8.614;2023-05-16T12:51:23;2.50;;;1.20;;
77055;SDS011;67471;44.918;8.614;2023-05-16T12:54:27;2.30;;;1.40;;
77055;SDS011;67471;44.918;8.614;2023-05-16T12:57:30;2.92;;;1.42;;
77055;SDS011;67471;44.918;8.614;2023-05-16T13:00:35;2.58;;;1.35;;
77055;SDS011;67471;44.918;8.614;2023-05-16T13:03:39;3.70;;;1.25;;
77055;SDS011;67471;44.918;8.614;2023-05-16T13:06:43;2.72;;;1.15;;
77055;SDS011;67471;44.918;8.614;2023-05-16T13:09:47;2.38;;;1.40;;
77055;SDS011;67471;44.918;8.614;2023-05-16T13:12:51;4.13;;;1.38;;
77055;SDS011;67471;44.918;8.614;2023-05-16T13:15:55;2.97;;;1.40;;
77055;SDS011;67471;44.918;8.614;2023-05-16T13:18:58;2.50;;;1.17;;
77055;SDS011;67471;44.918;8.614;2023-05-16T13:22:02;2.22;;;1.30;;
77055;SDS011;67471;44.918;8.614;2023-05-16T13:25:06;3.25;;;1.45;;
77055;SDS011;67471;44.918;8.614;2023-05-16T13:28:11;3.88;;;1.55;;
77055;SDS011;67471;44.918;8.614;2023-05-16T13:31:14;3.30;;;1.50;;
77055;SDS011;67471;44.918;8.614;2023-05-16T13:34:18;2.42;;;1.33;;
77055;SDS011;67471;44.918;8.614;2023-05-16T13:37:22;3.88;;;1.45;;
77055;SDS011;67471;44.918;8.614;2023-05-16T13:40:26;5.40;;;1.70;;
77055;SDS011;67471;44.918;8.614;2023-05-16T13:43:31;4.32;;;1.73;;
77055;SDS011;67471;44.918;8.614;2023-05-16T13:46:35;5.25;;;1.50;;
77055;SDS011;67471;44.918;8.614;2023-05-16T13:49:39;3.55;;;1.70;;
77055;SDS011;67471;44.918;8.614;2023-05-16T13:52:43;3.45;;;1.42;;
77055;SDS011;67471;44.918;8.614;2023-05-16T13:55:46;3.03;;;1.20;;
77055;SDS011;67471;44.918;8.614;2023-05-16T13:58:50;4.60;;;1.70;;
77055;SDS011;67471;44.918;8.614;2023-05-16T14:01:54;5.15;;;1.63;;
77055;SDS011;67471;44.918;8.614;2023-05-16T14:04:58;4.90;;;2.20;;
77055;SDS011;67471;44.918;8.614;2023-05-16T14:08:02;2.72;;;1.40;;
77055;SDS011;67471;44.918;8.614;2023-05-16T14:11:07;6.00;;;1.98;;
77055;SDS011;67471;44.918;8.614;2023-05-16T14:14:10;2.63;;;1.70;;
77055;SDS011;67471;44.918;8.614;2023-05-16T14:17:14;2.75;;;1.75;;
77055;SDS011;67471;44.918;8.614;2023-05-16T14:20:18;5.20;;;1.80;;
77055;SDS011;67471;44.918;8.614;2023-05-16T14:23:22;3.33;;;1.50;;
77055;SDS011;67471;44.918;8.614;2023-05-16T14:26:25;5.00;;;1.92;;
77055;SDS011;67471;44.918;8.614;2023-05-16T14:29:29;2.33;;;1.25;;
77055;SDS011;67471;44.918;8.614;2023-05-16T14:32:33;3.30;;;1.40;;
77055;SDS011;67471;44.918;8.614;2023-05-16T14:35:36;4.45;;;2.38;;
77055;SDS011;67471;44.918;8.614;2023-05-16T14:38:40;6.35;;;1.35;;
77055;SDS011;67471;44.918;8.614;2023-05-16T14:41:44;2.63;;;1.40;;
77055;SDS011;67471;44.918;8.614;2023-05-16T14:44:48;3.25;;;1.60;;
77055;SDS011;67471;44.918;8.614;2023-05-16T14:47:51;3.88;;;2.00;;
77055;SDS011;67471;44.918;8.614;2023-05-16T14:50:55;2.95;;;1.40;;
77055;SDS011;67471;44.918;8.614;2023-05-16T14:53:59;3.47;;;1.35;;
77055;SDS011;67471;44.918;8.614;2023-05-16T14:57:03;2.75;;;1.17;;
77055;SDS011;67471;44.918;8.614;2023-05-16T15:00:07;1.88;;;1.02;;
77055;SDS011;67471;44.918;8.614;2023-05-16T15:03:12;2.30;;;1.40;;
77055;SDS011;67471;44.918;8.614;2023-05-16T15:06:16;2.20;;;1.50;;
77055;SDS011;67471;44.918;8.614;2023-05-16T15:09:20;2.75;;;1.30;;
77055;SDS011;67471;44.918;8.614;2023-05-16T15:12:23;2.97;;;1.10;;
77055;SDS011;67471;44.918;8.614;2023-05-16T15:15:27;4.90;;;1.48;;
77055;SDS011;67471;44.918;8.614;2023-05-16T15:18:31;2.75;;;1.45;;
77055;SDS011;67471;44.918;8.614;2023-05-16T15:21:35;8.10;;;3.47;;
77055;SDS011;67471;44.918;8.614;2023-05-16T15:24:39;3.13;;;1.30;;
77055;SDS011;67471;44.918;8.614;2023-05-16T15:27:43;2.22;;;1.27;;
77055;SDS011;67471;44.918;8.614;2023-05-16T15:30:46;4.18;;;1.30;;
77055;SDS011;67471;44.918;8.614;2023-05-16T15:33:50;2.28;;;1.25;;
77055;SDS011;67471;44.918;8.614;2023-05-16T15:36:54;4.43;;;1.25;;
77055;SDS011;67471;44.918;8.614;2023-05-16T15:39:58;2.65;;;1.10;;
77055;SDS011;67471;44.918;8.614;2023-05-16T15:43:02;2.22;;;1.60;;
77055;SDS011;67471;44.918;8.614;2023-05-16T15:46:06;2.53;;;1.27;;
77055;SDS011;67471;44.918;8.614;2023-05-16T15:49:11;4.75;;;2.20;;
77055;SDS011;67471;44.918;8.614;2023-05-16T15:52:15;2.50;;;1.60;;
77055;SDS011;67471;44.918;8.614;2023-05-16T15:55:19;2.35;;;1.20;;
77055;SDS011;67471;44.918;8.614;2023-05-16T15:58:23;2.83;;;1.70;;
77055;SDS011;67471;44.918;8.614;2023-05-16T16:01:27;2.63;;;1.50;;
77055;SDS011;67471;44.918;8.614;2023-05-16T16:04:30;3.55;;;1.58;;
77055;SDS011;67471;44.918;8.614;2023-05-16T16:07:34;2.40;;;1.33;;
77055;SDS011;67471;44.918;8.614;2023-05-16T16:10:38;4.47;;;1.55;;
77055;SDS011;67471;44.918;8.614;2023-05-16T16:13:42;2.58;;;1.50;;
77055;SDS011;67471;44.918;8.614;2023-05-16T16:16:46;4.03;;;1.40;;
77055;SDS011;67471;44.918;8.614;2023-05-16T16:19:50;2.10;;;1.40;;
77055;SDS011;67471;44.918;8.614;2023-05-16T16:22:54;2.45;;;1.60;;
77055;SDS011;67471;44.918;8.614;2023-05-16T16:25:58;4.35;;;1.95;;
77055;SDS011;67471;44.918;8.614;2023-05-16T16:29:02;12.20;;;10.10;;
77055;SDS011;67471;44.918;8.614;2023-05-16T16:32:06;6.13;;;4.43;;
77055;SDS011;67471;44.918;8.614;2023-05-16T16:35:10;3.83;;;2.80;;
77055;SDS011;67471;44.918;8.614;2023-05-16T16:38:14;3.55;;;2.00;;
77055;SDS011;67471;44.918;8.614;2023-05-16T16:41:18;3.33;;;1.92;;
77055;SDS011;67471;44.918;8.614;2023-05-16T16:44:22;3.45;;;2.00;;
77055;SDS011;67471;44.918;8.614;2023-05-16T16:47:25;3.72;;;1.60;;
77055;SDS011;67471;44.918;8.614;2023-05-16T16:50:30;3.95;;;2.22;;
77055;SDS011;67471;44.918;8.614;2023-05-16T16:53:35;3.47;;;1.80;;
77055;SDS011;67471;44.918;8.614;2023-05-16T16:56:40;3.00;;;1.83;;
77055;SDS011;67471;44.918;8.614;2023-05-16T16:59:43;4.03;;;2.10;;
77055;SDS011;67471;44.918;8.614;2023-05-16T17:02:48;6.93;;;2.08;;
77055;SDS011;67471;44.918;8.614;2023-05-16T17:05:52;4.15;;;2.00;;
77055;SDS011;67471;44.918;8.614;2023-05-16T17:08:56;6.55;;;2.38;;
77055;SDS011;67471;44.918;8.614;2023-05-16T17:12:05;4.18;;;2.38;;
77055;SDS011;67471;44.918;8.614;2023-05-16T17:15:10;3.83;;;1.88;;
77055;SDS011;67471;44.918;8.614;2023-05-16T17:18:14;3.22;;;1.70;;
77055;SDS011;67471;44.918;8.614;2023-05-16T17:21:18;3.38;;;1.80;;
77055;SDS011;67471;44.918;8.614;2023-05-16T17:24:22;3.67;;;2.45;;
77055;SDS011;67471;44.918;8.614;2023-05-16T17:27:26;5.72;;;2.70;;
77055;SDS011;67471;44.918;8.614;2023-05-16T17:30:30;6.55;;;2.88;;
77055;SDS011;67471;44.918;8.614;2023-05-16T17:33:33;8.10;;;4.30;;
77055;SDS011;67471;44.918;8.614;2023-05-16T17:36:37;6.25;;;3.60;;
77055;SDS011;67471;44.918;8.614;2023-05-16T17:39:41;4.47;;;3.03;;
77055;SDS011;67471;44.918;8.614;2023-05-16T17:42:45;3.30;;;2.22;;
77055;SDS011;67471;44.918;8.614;2023-05-16T17:45:49;4.07;;;2.00;;
77055;SDS011;67471;44.918;8.614;2023-05-16T17:48:53;6.03;;;2.00;;
77055;SDS011;67471;44.918;8.614;2023-05-16T17:51:57;2.65;;;1.85;;
77055;SDS011;67471;44.918;8.614;2023-05-16T17:55:01;3.28;;;1.83;;
77055;SDS011;67471;44.918;8.614;2023-05-16T17:58:06;3.67;;;1.90;;
77055;SDS011;67471;44.918;8.614;2023-05-16T18:01:11;3.85;;;2.10;;
77055;SDS011;67471;44.918;8.614;2023-05-16T18:04:15;5.45;;;2.38;;
77055;SDS011;67471;44.918;8.614;2023-05-16T18:07:19;6.32;;;2.60;;
77055;SDS011;67471;44.918;8.614;2023-05-16T18:10:23;7.18;;;2.28;;
77055;SDS011;67471;44.918;8.614;2023-05-16T18:13:27;7.57;;;2.10;;
77055;SDS011;67471;44.918;8.614;2023-05-16T18:16:31;3.67;;;1.80;;
77055;SDS011;67471;44.918;8.614;2023-05-16T18:19:35;4.13;;;1.88;;
77055;SDS011;67471;44.918;8.614;2023-05-16T18:22:39;3.10;;;1.70;;
77055;SDS011;67471;44.918;8.614;2023-05-16T18:25:44;2.60;;;1.58;;
77055;SDS011;67471;44.918;8.614;2023-05-16T18:28:48;2.67;;;1.77;;
77055;SDS011;67471;44.918;8.614;2023-05-16T18:31:52;5.88;;;1.45;;
77055;SDS011;67471;44.918;8.614;2023-05-16T18:34:56;5.13;;;2.20;;
77055;SDS011;67471;44.918;8.614;2023-05-16T18:38:00;3.45;;;1.85;;
77055;SDS011;67471;44.918;8.614;2023-05-16T18:41:06;4.95;;;2.92;;
77055;SDS011;67471;44.918;8.614;2023-05-16T18:44:09;2.92;;;2.00;;